sensor_id;sensor_type;location;lat;lon;timestamp;P1;durP1;ratioP1;P2;durP2;ratioP2
40781;SDS011;26493;51.938;7.626;2023-04-25T00:02:25;23.85;;;15.95;;
40781;SDS011;26493;51.938;7.626;2023-04-25T00:04:51;23.83;;;15.77;;
40781;SDS011;26493;51.938;7.626;2023-04-25T00:07:17;24.77;;;15.30;;
40781;SDS011;26493;51.938;7.626;2023-04-25T00:09:44;23.27;;;14.05;;
40781;SDS011;26493;51.938;7.626;2023-04-25T00:12:10;35.40;;;17.08;;
40781;SDS011;26493;51.938;7.626;2023-04-25T00:14:36;29.92;;;15.77;;
40781;SDS011;26493;51.938;7.626;2023-04-25T00:17:02;24.25;;;15.18;;
40781;SDS011;26493;51.938;7.626;2023-04-25T00:19:29;22.85;;;14.52;;
40781;SDS011;26493;51.938;7.626;2023-04-25T00:21:55;30.67;;;16.13;;
40781;SDS011;26493;51.938;7.626;2023-04-25T00:24:21;24.70;;;15.35;;
40781;SDS011;26493;51.938;7.626;2023-04-25T00:26:47;25.42;;;15.77;;
40781;SDS011;26493;51.938;7.626;2023-04-25T00:29:13;21.67;;;15.52;;
40781;SDS011;26493;51.938;7.626;2023-04-25T00:31:39;34.50;;;16.80;;
40781;SDS011;26493;51.938;7.626;2023-04-25T00:34:06;22.73;;;16.08;;
40781;SDS011;26493;51.938;7.626;2023-04-25T00:36:33;25.98;;;17.70;;
40781;SDS011;26493;51.938;7.626;2023-04-25T00:38:59;26.30;;;17.58;;
40781;SDS011;26493;51.938;7.626;2023-04-25T00:41:25;24.95;;;17.40;;
40781;SDS011;26493;51.938;7.626;2023-04-25T00:43:52;24.15;;;18.45;;
40781;SDS011;26493;51.938;7.626;2023-04-25T00:46:19;23.67;;;17.42;;
40781;SDS011;26493;51.938;7.626;2023-04-25T00:48:45;36.22;;;18.98;;
40781;SDS011;26493;51.938;7.626;2023-04-25T00:51:13;26.77;;;17.80;;
40781;SDS011;26493;51.938;7.626;2023-04-25T00:53:41;26.92;;;18.17;;
40781;SDS011;26493;51.938;7.626;2023-04-25T00:56:07;26.98;;;17.42;;
40781;SDS011;26493;51.938;7.626;2023-04-25T00:58:33;24.35;;;17.25;;
40781;SDS011;26493;51.938;7.626;2023-04-25T01:01:00;29.05;;;19.52;;
40781;SDS011;26493;51.938;7.626;2023-04-25T01:03:26;24.50;;;18.02;;
40781;SDS011;26493;51.938;7.626;2023-04-25T01:05:54;28.83;;;17.70;;
40781;SDS011;26493;51.938;7.626;2023-04-25T01:08:22;24.38;;;18.42;;
40781;SDS011;26493;51.938;7.626;2023-04-25T01:10:50;23.83;;;17.70;;
40781;SDS011;26493;51.938;7.626;2023-04-25T01:13:16;26.40;;;17.40;;
40781;SDS011;26493;51.938;7.626;2023-04-25T01:15:42;23.38;;;17.52;;
40781;SDS011;26493;51.938;7.626;2023-04-25T01:18:08;26.23;;;19.58;;
40781;SDS011;26493;51.938;7.626;2023-04-25T01:20:35;28.15;;;20.73;;
40781;SDS011;26493;51.938;7.626;2023-04-25T01:23:02;25.30;;;18.58;;
40781;SDS011;26493;51.938;7.626;2023-04-25T01:25:29;26.55;;;20.10;;
40781;SDS011;26493;51.938;7.626;2023-04-25T01:27:55;23.63;;;19.17;;
40781;SDS011;26493;51.938;7.626;2023-04-25T01:30:21;25.90;;;19.55;;
40781;SDS011;26493;51.938;7.626;2023-04-25T01:32:48;25.80;;;21.73;;
40781;SDS011;26493;51.938;7.626;2023-04-25T01:35:14;26.98;;;22.15;;
40781;SDS011;26493;51.938;7.626;2023-04-25T01:37:41;28.30;;;22.98;;
40781;SDS011;26493;51.938;7.626;2023-04-25T01:40:09;26.05;;;23.30;;
40781;SDS011;26493;51.938;7.626;2023-04-25T01:42:36;26.15;;;23.35;;
40781;SDS011;26493;51.938;7.626;2023-04-25T01:45:02;28.42;;;25.88;;
40781;SDS011;26493;51.938;7.626;2023-04-25T01:47:28;29.85;;;26.95;;
40781;SDS011;26493;51.938;7.626;2023-04-25T01:49:54;30.17;;;26.98;;
40781;SDS011;26493;51.938;7.626;2023-04-25T01:52:20;31.30;;;28.08;;
40781;SDS011;26493;51.938;7.626;2023-04-25T01:54:46;30.30;;;27.27;;
40781;SDS011;26493;51.938;7.626;2023-04-25T01:57:13;29.75;;;26.85;;
40781;SDS011;26493;51.938;7.626;2023-04-25T01:59:39;29.02;;;26.23;;
40781;SDS011;26493;51.938;7.626;2023-04-25T02:02:05;28.83;;;25.48;;
40781;SDS011;26493;51.938;7.626;2023-04-25T02:04:32;27.60;;;24.83;;
40781;SDS011;26493;51.938;7.626;2023-04-25T02:06:58;29.08;;;25.80;;
40781;SDS011;26493;51.938;7.626;2023-04-25T02:09:24;27.40;;;24.80;;
40781;SDS011;26493;51.938;7.626;2023-04-25T02:11:50;28.77;;;25.00;;
40781;SDS011;26493;51.938;7.626;2023-04-25T02:14:16;28.23;;;25.23;;
40781;SDS011;26493;51.938;7.626;2023-04-25T02:16:42;29.48;;;26.58;;
40781;SDS011;26493;51.938;7.626;2023-04-25T02:19:11;29.95;;;26.23;;
40781;SDS011;26493;51.938;7.626;2023-04-25T02:21:37;28.77;;;25.83;;
40781;SDS011;26493;51.938;7.626;2023-04-25T02:24:03;30.15;;;25.40;;
40781;SDS011;26493;51.938;7.626;2023-04-25T02:26:29;27.92;;;25.05;;
40781;SDS011;26493;51.938;7.626;2023-04-25T02:28:56;28.75;;;25.67;;
40781;SDS011;26493;51.938;7.626;2023-04-25T02:31:22;28.17;;;25.25;;
40781;SDS011;26493;51.938;7.626;2023-04-25T02:33:48;31.08;;;23.98;;
40781;SDS011;26493;51.938;7.626;2023-04-25T02:36:14;33.33;;;25.20;;
40781;SDS011;26493;51.938;7.626;2023-04-25T02:38:40;29.90;;;24.55;;
40781;SDS011;26493;51.938;7.626;2023-04-25T02:41:06;38.95;;;27.45;;
40781;SDS011;26493;51.938;7.626;2023-04-25T02:43:32;33.78;;;26.27;;
40781;SDS011;26493;51.938;7.626;2023-04-25T02:45:58;27.90;;;25.08;;
40781;SDS011;26493;51.938;7.626;2023-04-25T02:48:24;29.17;;;24.02;;
40781;SDS011;26493;51.938;7.626;2023-04-25T02:50:50;32.45;;;25.52;;
40781;SDS011;26493;51.938;7.626;2023-04-25T02:53:16;28.02;;;24.92;;
40781;SDS011;26493;51.938;7.626;2023-04-25T02:55:42;29.48;;;25.50;;
40781;SDS011;26493;51.938;7.626;2023-04-25T02:58:08;28.10;;;24.98;;
40781;SDS011;26493;51.938;7.626;2023-04-25T03:00:34;27.05;;;24.25;;
40781;SDS011;26493;51.938;7.626;2023-04-25T03:03:00;30.52;;;23.88;;
40781;SDS011;26493;51.938;7.626;2023-04-25T03:05:25;33.53;;;25.65;;
40781;SDS011;26493;51.938;7.626;2023-04-25T03:07:51;30.88;;;24.88;;
40781;SDS011;26493;51.938;7.626;2023-04-25T03:10:17;35.53;;;24.60;;
40781;SDS011;26493;51.938;7.626;2023-04-25T03:12:43;28.80;;;24.00;;
40781;SDS011;26493;51.938;7.626;2023-04-25T03:15:09;29.98;;;24.70;;
40781;SDS011;26493;51.938;7.626;2023-04-25T03:17:35;32.15;;;23.70;;
40781;SDS011;26493;51.938;7.626;2023-04-25T03:20:01;27.45;;;23.50;;
40781;SDS011;26493;51.938;7.626;2023-04-25T03:22:29;28.02;;;23.98;;
40781;SDS011;26493;51.938;7.626;2023-04-25T03:24:55;28.38;;;23.20;;
40781;SDS011;26493;51.938;7.626;2023-04-25T03:27:20;32.28;;;23.83;;
40781;SDS011;26493;51.938;7.626;2023-04-25T03:29:46;27.25;;;23.45;;
40781;SDS011;26493;51.938;7.626;2023-04-25T03:32:12;29.63;;;23.88;;
40781;SDS011;26493;51.938;7.626;2023-04-25T03:34:38;27.42;;;23.27;;
40781;SDS011;26493;51.938;7.626;2023-04-25T03:37:05;26.63;;;23.73;;
40781;SDS011;26493;51.938;7.626;2023-04-25T03:39:31;29.35;;;24.10;;
40781;SDS011;26493;51.938;7.626;2023-04-25T03:41:57;29.15;;;25.38;;
40781;SDS011;26493;51.938;7.626;2023-04-25T03:44:22;36.33;;;25.95;;
40781;SDS011;26493;51.938;7.626;2023-04-25T03:46:49;29.05;;;23.77;;
40781;SDS011;26493;51.938;7.626;2023-04-25T03:49:15;33.33;;;26.30;;
40781;SDS011;26493;51.938;7.626;2023-04-25T03:51:41;28.88;;;25.17;;
40781;SDS011;26493;51.938;7.626;2023-04-25T03:54:07;30.27;;;24.90;;
40781;SDS011;26493;51.938;7.626;2023-04-25T03:56:33;30.67;;;24.63;;
40781;SDS011;26493;51.938;7.626;2023-04-25T03:58:59;33.05;;;24.77;;
40781;SDS011;26493;51.938;7.626;2023-04-25T04:01:25;33.53;;;24.73;;
40781;SDS011;26493;51.938;7.626;2023-04-25T04:03:51;27.83;;;23.75;;
40781;SDS011;26493;51.938;7.626;2023-04-25T04:06:17;27.85;;;24.65;;
40781;SDS011;26493;51.938;7.626;2023-04-25T04:08:45;34.72;;;26.50;;
40781;SDS011;26493;51.938;7.626;2023-04-25T04:11:11;32.40;;;26.13;;
40781;SDS011;26493;51.938;7.626;2023-04-25T04:13:37;29.10;;;25.45;;
40781;SDS011;26493;51.938;7.626;2023-04-25T04:16:03;33.08;;;25.25;;
40781;SDS011;26493;51.938;7.626;2023-04-25T04:18:30;31.40;;;25.75;;
40781;SDS011;26493;51.938;7.626;2023-04-25T04:20:56;31.95;;;27.15;;
40781;SDS011;26493;51.938;7.626;2023-04-25T04:23:23;37.08;;;24.95;;
40781;SDS011;26493;51.938;7.626;2023-04-25T04:25:49;29.60;;;26.60;;
40781;SDS011;26493;51.938;7.626;2023-04-25T04:28:15;31.98;;;25.80;;
40781;SDS011;26493;51.938;7.626;2023-04-25T04:30:41;28.45;;;25.35;;
40781;SDS011;26493;51.938;7.626;2023-04-25T04:33:11;30.63;;;24.35;;
40781;SDS011;26493;51.938;7.626;2023-04-25T04:35:38;29.02;;;25.70;;
40781;SDS011;26493;51.938;7.626;2023-04-25T04:38:03;35.72;;;26.23;;
40781;SDS011;26493;51.938;7.626;2023-04-25T04:40:29;31.38;;;25.08;;
40781;SDS011;26493;51.938;7.626;2023-04-25T04:42:56;31.45;;;24.77;;
40781;SDS011;26493;51.938;7.626;2023-04-25T04:45:22;31.75;;;23.83;;
40781;SDS011;26493;51.938;7.626;2023-04-25T04:47:48;29.52;;;24.25;;
40781;SDS011;26493;51.938;7.626;2023-04-25T04:50:15;28.35;;;24.30;;
40781;SDS011;26493;51.938;7.626;2023-04-25T04:52:41;29.40;;;26.08;;
40781;SDS011;26493;51.938;7.626;2023-04-25T04:55:07;30.58;;;24.27;;
40781;SDS011;26493;51.938;7.626;2023-04-25T04:57:34;35.42;;;24.00;;
40781;SDS011;26493;51.938;7.626;2023-04-25T05:00:00;30.77;;;23.35;;
40781;SDS011;26493;51.938;7.626;2023-04-25T05:02:29;26.95;;;23.42;;
40781;SDS011;26493;51.938;7.626;2023-04-25T05:04:55;37.15;;;26.15;;
40781;SDS011;26493;51.938;7.626;2023-04-25T05:07:22;32.90;;;22.42;;
40781;SDS011;26493;51.938;7.626;2023-04-25T05:09:48;28.98;;;22.05;;
40781;SDS011;26493;51.938;7.626;2023-04-25T05:12:14;33.78;;;22.85;;
40781;SDS011;26493;51.938;7.626;2023-04-25T05:14:40;30.95;;;22.05;;
40781;SDS011;26493;51.938;7.626;2023-04-25T05:17:06;28.15;;;22.67;;
40781;SDS011;26493;51.938;7.626;2023-04-25T05:19:33;29.77;;;21.95;;
40781;SDS011;26493;51.938;7.626;2023-04-25T05:21:59;26.35;;;21.52;;
40781;SDS011;26493;51.938;7.626;2023-04-25T05:24:25;31.25;;;21.92;;
40781;SDS011;26493;51.938;7.626;2023-04-25T05:26:51;33.13;;;22.58;;
40781;SDS011;26493;51.938;7.626;2023-04-25T05:29:18;26.13;;;21.70;;
40781;SDS011;26493;51.938;7.626;2023-04-25T05:31:44;29.77;;;21.40;;
40781;SDS011;26493;51.938;7.626;2023-04-25T05:34:10;27.08;;;21.50;;
40781;SDS011;26493;51.938;7.626;2023-04-25T05:36:36;26.65;;;21.02;;
40781;SDS011;26493;51.938;7.626;2023-04-25T05:39:02;23.25;;;19.30;;
40781;SDS011;26493;51.938;7.626;2023-04-25T05:41:29;27.92;;;21.48;;
40781;SDS011;26493;51.938;7.626;2023-04-25T05:43:55;33.10;;;21.23;;
40781;SDS011;26493;51.938;7.626;2023-04-25T05:46:21;25.33;;;20.70;;
40781;SDS011;26493;51.938;7.626;2023-04-25T05:48:47;27.35;;;19.23;;
40781;SDS011;26493;51.938;7.626;2023-04-25T05:51:13;24.88;;;20.13;;
40781;SDS011;26493;51.938;7.626;2023-04-25T05:53:39;25.88;;;19.13;;
40781;SDS011;26493;51.938;7.626;2023-04-25T05:56:05;25.52;;;20.52;;
40781;SDS011;26493;51.938;7.626;2023-04-25T05:58:31;32.45;;;20.25;;
40781;SDS011;26493;51.938;7.626;2023-04-25T06:00:57;26.38;;;18.35;;
40781;SDS011;26493;51.938;7.626;2023-04-25T06:03:23;30.50;;;17.88;;
40781;SDS011;26493;51.938;7.626;2023-04-25T06:05:49;21.13;;;17.00;;
40781;SDS011;26493;51.938;7.626;2023-04-25T06:08:15;25.42;;;16.48;;
40781;SDS011;26493;51.938;7.626;2023-04-25T06:10:41;28.98;;;17.67;;
40781;SDS011;26493;51.938;7.626;2023-04-25T06:13:07;24.10;;;15.90;;
40781;SDS011;26493;51.938;7.626;2023-04-25T06:15:33;25.92;;;16.75;;
40781;SDS011;26493;51.938;7.626;2023-04-25T06:17:59;24.05;;;14.18;;
40781;SDS011;26493;51.938;7.626;2023-04-25T06:20:25;28.85;;;14.30;;
40781;SDS011;26493;51.938;7.626;2023-04-25T06:22:51;23.17;;;13.20;;
40781;SDS011;26493;51.938;7.626;2023-04-25T06:25:17;24.35;;;13.85;;
40781;SDS011;26493;51.938;7.626;2023-04-25T06:27:43;23.77;;;13.73;;
40781;SDS011;26493;51.938;7.626;2023-04-25T06:30:09;20.67;;;11.20;;
40781;SDS011;26493;51.938;7.626;2023-04-25T06:32:37;25.15;;;11.43;;
40781;SDS011;26493;51.938;7.626;2023-04-25T06:35:03;23.98;;;11.35;;
40781;SDS011;26493;51.938;7.626;2023-04-25T06:37:29;23.85;;;11.20;;
40781;SDS011;26493;51.938;7.626;2023-04-25T06:39:55;22.15;;;10.93;;
40781;SDS011;26493;51.938;7.626;2023-04-25T06:42:21;23.20;;;12.10;;
40781;SDS011;26493;51.938;7.626;2023-04-25T06:44:47;23.13;;;11.10;;
40781;SDS011;26493;51.938;7.626;2023-04-25T06:47:13;17.35;;;10.38;;
40781;SDS011;26493;51.938;7.626;2023-04-25T06:49:39;20.40;;;10.52;;
40781;SDS011;26493;51.938;7.626;2023-04-25T06:52:05;25.92;;;11.15;;
40781;SDS011;26493;51.938;7.626;2023-04-25T06:54:31;23.17;;;11.55;;
40781;SDS011;26493;51.938;7.626;2023-04-25T06:56:57;18.90;;;9.60;;
40781;SDS011;26493;51.938;7.626;2023-04-25T06:59:25;21.85;;;10.50;;
40781;SDS011;26493;51.938;7.626;2023-04-25T07:01:51;23.40;;;10.65;;
40781;SDS011;26493;51.938;7.626;2023-04-25T07:04:17;20.08;;;10.70;;
40781;SDS011;26493;51.938;7.626;2023-04-25T07:06:44;25.17;;;10.95;;
40781;SDS011;26493;51.938;7.626;2023-04-25T07:09:12;24.55;;;11.50;;
40781;SDS011;26493;51.938;7.626;2023-04-25T07:11:38;22.05;;;11.45;;
40781;SDS011;26493;51.938;7.626;2023-04-25T07:14:04;23.75;;;10.90;;
40781;SDS011;26493;51.938;7.626;2023-04-25T07:16:30;21.63;;;10.57;;
40781;SDS011;26493;51.938;7.626;2023-04-25T07:18:56;23.08;;;10.23;;
40781;SDS011;26493;51.938;7.626;2023-04-25T07:21:22;19.02;;;10.45;;
40781;SDS011;26493;51.938;7.626;2023-04-25T07:23:48;20.10;;;9.65;;
40781;SDS011;26493;51.938;7.626;2023-04-25T07:26:14;20.20;;;9.95;;
40781;SDS011;26493;51.938;7.626;2023-04-25T07:28:40;20.83;;;10.23;;
40781;SDS011;26493;51.938;7.626;2023-04-25T07:31:06;19.15;;;9.50;;
40781;SDS011;26493;51.938;7.626;2023-04-25T07:33:33;20.27;;;9.68;;
40781;SDS011;26493;51.938;7.626;2023-04-25T07:35:59;27.88;;;11.05;;
40781;SDS011;26493;51.938;7.626;2023-04-25T07:38:25;21.88;;;10.55;;
40781;SDS011;26493;51.938;7.626;2023-04-25T07:40:51;21.42;;;10.32;;
40781;SDS011;26493;51.938;7.626;2023-04-25T07:43:17;18.15;;;9.50;;
40781;SDS011;26493;51.938;7.626;2023-04-25T07:45:43;20.63;;;9.50;;
40781;SDS011;26493;51.938;7.626;2023-04-25T07:48:10;20.80;;;9.68;;
40781;SDS011;26493;51.938;7.626;2023-04-25T07:50:36;22.65;;;9.68;;
40781;SDS011;26493;51.938;7.626;2023-04-25T07:53:02;23.27;;;9.48;;
40781;SDS011;26493;51.938;7.626;2023-04-25T07:55:28;19.85;;;10.18;;
40781;SDS011;26493;51.938;7.626;2023-04-25T07:57:54;23.80;;;10.65;;
40781;SDS011;26493;51.938;7.626;2023-04-25T08:00:20;18.80;;;10.00;;
40781;SDS011;26493;51.938;7.626;2023-04-25T08:02:46;22.38;;;9.30;;
40781;SDS011;26493;51.938;7.626;2023-04-25T08:05:12;23.35;;;10.30;;
40781;SDS011;26493;51.938;7.626;2023-04-25T08:07:40;18.42;;;10.18;;
40781;SDS011;26493;51.938;7.626;2023-04-25T08:10:07;19.60;;;10.63;;
40781;SDS011;26493;51.938;7.626;2023-04-25T08:12:33;22.80;;;10.02;;
40781;SDS011;26493;51.938;7.626;2023-04-25T08:14:59;21.88;;;9.75;;
40781;SDS011;26493;51.938;7.626;2023-04-25T08:17:25;17.80;;;9.68;;
40781;SDS011;26493;51.938;7.626;2023-04-25T08:19:51;20.70;;;10.85;;
40781;SDS011;26493;51.938;7.626;2023-04-25T08:22:17;20.63;;;10.52;;
40781;SDS011;26493;51.938;7.626;2023-04-25T08:24:43;23.67;;;10.68;;
40781;SDS011;26493;51.938;7.626;2023-04-25T08:27:09;28.70;;;10.48;;
40781;SDS011;26493;51.938;7.626;2023-04-25T08:29:36;22.02;;;10.00;;
40781;SDS011;26493;51.938;7.626;2023-04-25T08:32:02;18.77;;;9.32;;
40781;SDS011;26493;51.938;7.626;2023-04-25T08:34:28;18.90;;;9.40;;
40781;SDS011;26493;51.938;7.626;2023-04-25T08:36:54;21.25;;;9.70;;
40781;SDS011;26493;51.938;7.626;2023-04-25T08:39:20;20.88;;;9.77;;
40781;SDS011;26493;51.938;7.626;2023-04-25T08:41:46;20.63;;;9.77;;
40781;SDS011;26493;51.938;7.626;2023-04-25T08:44:12;22.70;;;10.15;;
40781;SDS011;26493;51.938;7.626;2023-04-25T08:46:39;18.98;;;9.60;;
40781;SDS011;26493;51.938;7.626;2023-04-25T08:49:07;19.23;;;9.82;;
40781;SDS011;26493;51.938;7.626;2023-04-25T08:51:40;21.58;;;9.48;;
40781;SDS011;26493;51.938;7.626;2023-04-25T08:54:12;21.15;;;9.95;;
40781;SDS011;26493;51.938;7.626;2023-04-25T08:56:38;19.33;;;10.50;;
40781;SDS011;26493;51.938;7.626;2023-04-25T08:59:04;18.95;;;10.85;;
40781;SDS011;26493;51.938;7.626;2023-04-25T09:01:33;16.45;;;9.13;;
40781;SDS011;26493;51.938;7.626;2023-04-25T09:03:59;18.35;;;9.60;;
40781;SDS011;26493;51.938;7.626;2023-04-25T09:06:25;18.60;;;9.93;;
40781;SDS011;26493;51.938;7.626;2023-04-25T09:08:52;17.63;;;9.60;;
40781;SDS011;26493;51.938;7.626;2023-04-25T09:11:18;20.02;;;9.80;;
40781;SDS011;26493;51.938;7.626;2023-04-25T09:13:44;19.02;;;9.75;;
40781;SDS011;26493;51.938;7.626;2023-04-25T09:16:11;16.40;;;9.52;;
40781;SDS011;26493;51.938;7.626;2023-04-25T09:18:39;19.17;;;9.10;;
40781;SDS011;26493;51.938;7.626;2023-04-25T09:21:06;16.10;;;9.07;;
40781;SDS011;26493;51.938;7.626;2023-04-25T09:23:39;17.45;;;9.50;;
40781;SDS011;26493;51.938;7.626;2023-04-25T09:26:06;17.45;;;9.57;;
40781;SDS011;26493;51.938;7.626;2023-04-25T09:28:33;18.35;;;10.32;;
40781;SDS011;26493;51.938;7.626;2023-04-25T09:31:00;23.17;;;9.45;;
40781;SDS011;26493;51.938;7.626;2023-04-25T09:33:29;18.70;;;9.60;;
40781;SDS011;26493;51.938;7.626;2023-04-25T09:38:28;17.40;;;8.80;;
40781;SDS011;26493;51.938;7.626;2023-04-25T09:40:55;18.05;;;9.52;;
40781;SDS011;26493;51.938;7.626;2023-04-25T09:43:22;15.25;;;9.02;;
40781;SDS011;26493;51.938;7.626;2023-04-25T09:45:48;19.15;;;9.80;;
40781;SDS011;26493;51.938;7.626;2023-04-25T09:48:17;28.20;;;10.27;;
40781;SDS011;26493;51.938;7.626;2023-04-25T09:50:43;16.08;;;9.95;;
40781;SDS011;26493;51.938;7.626;2023-04-25T09:53:10;17.23;;;9.30;;
40781;SDS011;26493;51.938;7.626;2023-04-25T09:55:36;20.55;;;9.75;;
40781;SDS011;26493;51.938;7.626;2023-04-25T09:58:04;16.27;;;9.48;;
40781;SDS011;26493;51.938;7.626;2023-04-25T10:00:33;15.07;;;8.70;;
40781;SDS011;26493;51.938;7.626;2023-04-25T10:03:03;19.30;;;10.52;;
40781;SDS011;26493;51.938;7.626;2023-04-25T10:05:30;17.58;;;9.32;;
40781;SDS011;26493;51.938;7.626;2023-04-25T10:07:58;15.32;;;8.52;;
40781;SDS011;26493;51.938;7.626;2023-04-25T10:10:25;15.60;;;9.30;;
40781;SDS011;26493;51.938;7.626;2023-04-25T10:12:53;17.45;;;9.82;;
40781;SDS011;26493;51.938;7.626;2023-04-25T10:15:19;16.50;;;10.20;;
40781;SDS011;26493;51.938;7.626;2023-04-25T10:17:45;18.55;;;9.18;;
40781;SDS011;26493;51.938;7.626;2023-04-25T10:20:11;17.23;;;9.50;;
40781;SDS011;26493;51.938;7.626;2023-04-25T10:22:41;18.48;;;9.85;;
40781;SDS011;26493;51.938;7.626;2023-04-25T10:25:08;16.05;;;9.70;;
40781;SDS011;26493;51.938;7.626;2023-04-25T10:27:34;16.65;;;9.45;;
40781;SDS011;26493;51.938;7.626;2023-04-25T10:30:01;18.00;;;9.63;;
40781;SDS011;26493;51.938;7.626;2023-04-25T10:32:30;19.40;;;9.80;;
40781;SDS011;26493;51.938;7.626;2023-04-25T10:34:57;17.80;;;10.43;;
40781;SDS011;26493;51.938;7.626;2023-04-25T10:37:23;18.30;;;9.90;;
40781;SDS011;26493;51.938;7.626;2023-04-25T10:39:50;17.77;;;10.25;;
40781;SDS011;26493;51.938;7.626;2023-04-25T10:42:18;18.80;;;9.25;;
40781;SDS011;26493;51.938;7.626;2023-04-25T10:45:00;17.17;;;9.60;;
40781;SDS011;26493;51.938;7.626;2023-04-25T10:47:34;15.38;;;10.07;;
40781;SDS011;26493;51.938;7.626;2023-04-25T10:50:05;20.15;;;11.50;;
40781;SDS011;26493;51.938;7.626;2023-04-25T10:52:32;16.48;;;9.13;;
40781;SDS011;26493;51.938;7.626;2023-04-25T10:54:58;16.48;;;8.82;;
40781;SDS011;26493;51.938;7.626;2023-04-25T11:00:13;17.23;;;9.27;;
40781;SDS011;26493;51.938;7.626;2023-04-25T11:02:44;17.80;;;9.13;;
40781;SDS011;26493;51.938;7.626;2023-04-25T11:05:15;15.65;;;9.18;;
40781;SDS011;26493;51.938;7.626;2023-04-25T11:07:45;17.27;;;9.50;;
40781;SDS011;26493;51.938;7.626;2023-04-25T11:10:15;20.17;;;9.23;;
40781;SDS011;26493;51.938;7.626;2023-04-25T11:12:41;17.90;;;9.68;;
40781;SDS011;26493;51.938;7.626;2023-04-25T11:15:07;18.08;;;9.88;;
40781;SDS011;26493;51.938;7.626;2023-04-25T11:17:33;18.65;;;9.77;;
40781;SDS011;26493;51.938;7.626;2023-04-25T11:19:59;18.02;;;9.40;;
40781;SDS011;26493;51.938;7.626;2023-04-25T11:22:26;18.77;;;9.52;;
40781;SDS011;26493;51.938;7.626;2023-04-25T11:24:53;17.48;;;9.60;;
40781;SDS011;26493;51.938;7.626;2023-04-25T11:27:19;16.30;;;9.50;;
40781;SDS011;26493;51.938;7.626;2023-04-25T11:29:46;17.13;;;9.43;;
40781;SDS011;26493;51.938;7.626;2023-04-25T11:32:14;17.08;;;9.38;;
40781;SDS011;26493;51.938;7.626;2023-04-25T11:34:42;17.30;;;9.45;;
40781;SDS011;26493;51.938;7.626;2023-04-25T11:37:08;17.40;;;9.30;;
40781;SDS011;26493;51.938;7.626;2023-04-25T11:39:36;17.48;;;9.68;;
40781;SDS011;26493;51.938;7.626;2023-04-25T11:42:03;17.65;;;10.20;;
40781;SDS011;26493;51.938;7.626;2023-04-25T11:44:30;18.35;;;9.70;;
40781;SDS011;26493;51.938;7.626;2023-04-25T11:46:56;19.52;;;9.52;;
40781;SDS011;26493;51.938;7.626;2023-04-25T11:49:23;16.85;;;9.57;;
40781;SDS011;26493;51.938;7.626;2023-04-25T11:51:49;15.60;;;8.90;;
40781;SDS011;26493;51.938;7.626;2023-04-25T11:54:16;16.30;;;9.07;;
40781;SDS011;26493;51.938;7.626;2023-04-25T11:56:42;16.77;;;9.43;;
40781;SDS011;26493;51.938;7.626;2023-04-25T11:59:09;16.98;;;9.43;;
40781;SDS011;26493;51.938;7.626;2023-04-25T12:01:36;15.40;;;9.52;;
40781;SDS011;26493;51.938;7.626;2023-04-25T12:04:12;19.85;;;9.20;;
40781;SDS011;26493;51.938;7.626;2023-04-25T12:06:38;18.55;;;10.25;;
40781;SDS011;26493;51.938;7.626;2023-04-25T12:09:06;16.90;;;9.82;;
40781;SDS011;26493;51.938;7.626;2023-04-25T12:11:40;15.10;;;9.60;;
40781;SDS011;26493;51.938;7.626;2023-04-25T12:14:06;15.85;;;9.43;;
40781;SDS011;26493;51.938;7.626;2023-04-25T12:16:45;15.77;;;9.65;;
40781;SDS011;26493;51.938;7.626;2023-04-25T12:19:14;14.48;;;8.77;;
40781;SDS011;26493;51.938;7.626;2023-04-25T12:21:40;15.82;;;9.00;;
40781;SDS011;26493;51.938;7.626;2023-04-25T12:24:10;16.52;;;9.27;;
40781;SDS011;26493;51.938;7.626;2023-04-25T12:26:49;16.70;;;9.40;;
40781;SDS011;26493;51.938;7.626;2023-04-25T12:29:19;17.27;;;9.68;;
40781;SDS011;26493;51.938;7.626;2023-04-25T12:31:45;16.67;;;9.35;;
40781;SDS011;26493;51.938;7.626;2023-04-25T12:34:11;17.15;;;9.30;;
40781;SDS011;26493;51.938;7.626;2023-04-25T12:36:37;18.38;;;9.32;;
40781;SDS011;26493;51.938;7.626;2023-04-25T12:39:04;17.08;;;9.30;;
40781;SDS011;26493;51.938;7.626;2023-04-25T12:41:30;29.20;;;10.48;;
40781;SDS011;26493;51.938;7.626;2023-04-25T12:43:56;15.55;;;9.00;;
40781;SDS011;26493;51.938;7.626;2023-04-25T12:46:22;16.42;;;9.23;;
40781;SDS011;26493;51.938;7.626;2023-04-25T12:48:48;16.63;;;9.40;;
40781;SDS011;26493;51.938;7.626;2023-04-25T12:51:14;19.38;;;9.27;;
40781;SDS011;26493;51.938;7.626;2023-04-25T12:53:40;18.00;;;9.90;;
40781;SDS011;26493;51.938;7.626;2023-04-25T12:56:09;16.20;;;9.40;;
40781;SDS011;26493;51.938;7.626;2023-04-25T12:58:36;15.95;;;9.70;;
40781;SDS011;26493;51.938;7.626;2023-04-25T13:01:02;16.67;;;9.88;;
40781;SDS011;26493;51.938;7.626;2023-04-25T13:03:28;17.25;;;9.80;;
40781;SDS011;26493;51.938;7.626;2023-04-25T13:05:54;15.68;;;9.95;;
40781;SDS011;26493;51.938;7.626;2023-04-25T13:08:20;16.02;;;9.63;;
40781;SDS011;26493;51.938;7.626;2023-04-25T13:10:49;16.27;;;9.77;;
40781;SDS011;26493;51.938;7.626;2023-04-25T13:15:41;15.95;;;9.43;;
40781;SDS011;26493;51.938;7.626;2023-04-25T13:18:07;15.48;;;9.40;;
40781;SDS011;26493;51.938;7.626;2023-04-25T13:20:33;17.92;;;10.20;;
40781;SDS011;26493;51.938;7.626;2023-04-25T13:23:00;15.63;;;9.68;;
40781;SDS011;26493;51.938;7.626;2023-04-25T13:25:26;15.82;;;9.65;;
40781;SDS011;26493;51.938;7.626;2023-04-25T13:27:52;19.80;;;9.43;;
40781;SDS011;26493;51.938;7.626;2023-04-25T13:30:17;16.27;;;9.80;;
40781;SDS011;26493;51.938;7.626;2023-04-25T13:32:43;15.07;;;10.20;;
40781;SDS011;26493;51.938;7.626;2023-04-25T13:35:13;15.52;;;9.88;;
40781;SDS011;26493;51.938;7.626;2023-04-25T13:37:40;17.98;;;10.50;;
40781;SDS011;26493;51.938;7.626;2023-04-25T13:40:07;15.88;;;9.63;;
40781;SDS011;26493;51.938;7.626;2023-04-25T13:42:34;19.13;;;9.90;;
40781;SDS011;26493;51.938;7.626;2023-04-25T13:45:01;16.15;;;10.40;;
40781;SDS011;26493;51.938;7.626;2023-04-25T13:47:27;16.77;;;10.10;;
40781;SDS011;26493;51.938;7.626;2023-04-25T13:49:53;18.13;;;9.60;;
40781;SDS011;26493;51.938;7.626;2023-04-25T13:52:19;18.45;;;9.80;;
40781;SDS011;26493;51.938;7.626;2023-04-25T13:54:46;17.23;;;9.77;;
40781;SDS011;26493;51.938;7.626;2023-04-25T13:57:12;18.77;;;9.60;;
40781;SDS011;26493;51.938;7.626;2023-04-25T13:59:38;16.35;;;10.57;;
40781;SDS011;26493;51.938;7.626;2023-04-25T14:02:06;15.23;;;9.20;;
40781;SDS011;26493;51.938;7.626;2023-04-25T14:04:32;16.08;;;9.85;;
40781;SDS011;26493;51.938;7.626;2023-04-25T14:06:58;19.10;;;9.95;;
40781;SDS011;26493;51.938;7.626;2023-04-25T14:09:24;17.65;;;10.00;;
40781;SDS011;26493;51.938;7.626;2023-04-25T14:11:52;16.13;;;10.20;;
40781;SDS011;26493;51.938;7.626;2023-04-25T14:14:18;16.75;;;10.20;;
40781;SDS011;26493;51.938;7.626;2023-04-25T14:16:44;19.00;;;10.48;;
40781;SDS011;26493;51.938;7.626;2023-04-25T14:19:13;16.40;;;9.82;;
40781;SDS011;26493;51.938;7.626;2023-04-25T14:21:39;16.60;;;9.43;;
40781;SDS011;26493;51.938;7.626;2023-04-25T14:24:05;18.35;;;9.68;;
40781;SDS011;26493;51.938;7.626;2023-04-25T14:26:33;17.00;;;9.73;;
40781;SDS011;26493;51.938;7.626;2023-04-25T14:29:00;17.48;;;10.05;;
40781;SDS011;26493;51.938;7.626;2023-04-25T14:31:26;16.80;;;9.35;;